KACJ

Jimmy Carter Regional Airport

Americus, Georgia, USA
METAR KACJ 210355Z AUTO 00000KT 10SM SCT003 24/21 A3010 RMK AO2
Observed Flight Rules
Aug-21 @ 03:55 UTC (15 minutes ago) Visual Flight Rules
Visibility Clouds
10 miles
  • Scattered at 300' AGL
Temperatures Readings
Current 24°C / 75°F
Dewpoint 21°C / 70°F
Humidity 83%
Altimeter 30.1" Hg
Pressure 1019 hPa
Elevation 143
METAR KACJ 210355Z AUTO 00000KT 10SM SCT003 24/21 A3010 RMK AO2
Observed Flight Rules
Aug-21 @ 03:55 UTC
(15 minutes ago)
VFR
Clouds
  • Scattered at 300' AGL
Temperature Dewpoint
24°C / 75°F 21°C / 70°F
Humidity Altimeter Pressure
83% 30.1" Hg 1019 hPa